sensor_id;sensor_type;location;lat;lon;timestamp;temperature;humidity
39347;DHT22;26262;49.836;6.632;2023-04-01T00:00:55;9.60;99.90
39347;DHT22;26262;49.836;6.632;2023-04-01T00:03:22;9.70;99.90
39347;DHT22;26262;49.836;6.632;2023-04-01T00:05:48;9.60;99.90
39347;DHT22;26262;49.836;6.632;2023-04-01T00:08:14;9.60;99.90
39347;DHT22;26262;49.836;6.632;2023-04-01T00:10:39;9.60;99.90
39347;DHT22;26262;49.836;6.632;2023-04-01T00:13:05;9.60;99.90
39347;DHT22;26262;49.836;6.632;2023-04-01T00:15:31;9.60;99.90
39347;DHT22;26262;49.836;6.632;2023-04-01T00:17:56;9.60;99.90
39347;DHT22;26262;49.836;6.632;2023-04-01T00:20:22;9.70;99.90
39347;DHT22;26262;49.836;6.632;2023-04-01T00:22:48;9.70;99.90
39347;DHT22;26262;49.836;6.632;2023-04-01T00:25:13;9.70;99.90
39347;DHT22;26262;49.836;6.632;2023-04-01T00:27:40;9.70;99.90
39347;DHT22;26262;49.836;6.632;2023-04-01T00:30:06;9.70;99.90
39347;DHT22;26262;49.836;6.632;2023-04-01T00:32:33;9.70;99.90
39347;DHT22;26262;49.836;6.632;2023-04-01T00:34:58;9.80;99.90
39347;DHT22;26262;49.836;6.632;2023-04-01T00:37:25;9.80;99.90
39347;DHT22;26262;49.836;6.632;2023-04-01T00:39:51;9.80;99.90
39347;DHT22;26262;49.836;6.632;2023-04-01T00:42:17;9.80;99.90
39347;DHT22;26262;49.836;6.632;2023-04-01T00:44:45;9.70;99.90
39347;DHT22;26262;49.836;6.632;2023-04-01T00:47:10;9.70;99.90
39347;DHT22;26262;49.836;6.632;2023-04-01T00:49:42;9.70;99.90
39347;DHT22;26262;49.836;6.632;2023-04-01T00:52:11;9.70;99.90
39347;DHT22;26262;49.836;6.632;2023-04-01T00:54:38;9.80;99.90
39347;DHT22;26262;49.836;6.632;2023-04-01T00:57:12;9.80;99.90
39347;DHT22;26262;49.836;6.632;2023-04-01T00:59:44;9.80;99.90
39347;DHT22;26262;49.836;6.632;2023-04-01T01:02:12;9.80;99.90
39347;DHT22;26262;49.836;6.632;2023-04-01T01:04:37;9.80;99.90
39347;DHT22;26262;49.836;6.632;2023-04-01T01:07:07;9.80;99.90
39347;DHT22;26262;49.836;6.632;2023-04-01T01:23:32;9.70;99.90
39347;DHT22;26262;49.836;6.632;2023-04-01T01:31:49;9.70;99.90
39347;DHT22;26262;49.836;6.632;2023-04-01T01:37:10;9.70;99.90
39347;DHT22;26262;49.836;6.632;2023-04-01T01:39:39;9.70;99.90
39347;DHT22;26262;49.836;6.632;2023-04-01T01:42:09;9.70;99.90
39347;DHT22;26262;49.836;6.632;2023-04-01T01:44:37;9.70;99.90
39347;DHT22;26262;49.836;6.632;2023-04-01T01:47:03;9.70;99.90
39347;DHT22;26262;49.836;6.632;2023-04-01T01:49:30;9.60;99.90
39347;DHT22;26262;49.836;6.632;2023-04-01T01:51:57;9.60;99.90
39347;DHT22;26262;49.836;6.632;2023-04-01T01:54:23;9.60;99.90
39347;DHT22;26262;49.836;6.632;2023-04-01T01:56:51;9.50;99.90
39347;DHT22;26262;49.836;6.632;2023-04-01T01:59:21;9.50;99.90
39347;DHT22;26262;49.836;6.632;2023-04-01T02:01:51;9.50;99.90
39347;DHT22;26262;49.836;6.632;2023-04-01T02:04:17;9.50;99.90
39347;DHT22;26262;49.836;6.632;2023-04-01T02:07:01;9.60;99.90
39347;DHT22;26262;49.836;6.632;2023-04-01T02:09:27;9.60;99.90
39347;DHT22;26262;49.836;6.632;2023-04-01T02:12:03;9.50;99.90
39347;DHT22;26262;49.836;6.632;2023-04-01T02:14:43;9.50;99.90
39347;DHT22;26262;49.836;6.632;2023-04-01T02:17:14;9.40;99.90
39347;DHT22;26262;49.836;6.632;2023-04-01T02:19:51;9.50;99.90
39347;DHT22;26262;49.836;6.632;2023-04-01T02:22:21;9.40;99.90
39347;DHT22;26262;49.836;6.632;2023-04-01T02:24:50;9.40;99.90
39347;DHT22;26262;49.836;6.632;2023-04-01T02:27:17;9.40;99.90
39347;DHT22;26262;49.836;6.632;2023-04-01T02:29:43;9.40;99.90
39347;DHT22;26262;49.836;6.632;2023-04-01T02:32:09;9.40;99.90
39347;DHT22;26262;49.836;6.632;2023-04-01T02:34:35;9.40;99.90
39347;DHT22;26262;49.836;6.632;2023-04-01T02:37:01;9.40;99.90
39347;DHT22;26262;49.836;6.632;2023-04-01T02:39:27;9.40;99.90
39347;DHT22;26262;49.836;6.632;2023-04-01T02:41:53;9.40;99.90
39347;DHT22;26262;49.836;6.632;2023-04-01T02:44:19;9.40;99.90
39347;DHT22;26262;49.836;6.632;2023-04-01T02:46:44;9.40;99.90
39347;DHT22;26262;49.836;6.632;2023-04-01T02:49:10;9.50;99.90
39347;DHT22;26262;49.836;6.632;2023-04-01T02:51:36;9.50;99.90
39347;DHT22;26262;49.836;6.632;2023-04-01T02:54:02;9.40;99.90
39347;DHT22;26262;49.836;6.632;2023-04-01T02:56:27;9.40;99.90
39347;DHT22;26262;49.836;6.632;2023-04-01T02:58:53;9.40;99.90
39347;DHT22;26262;49.836;6.632;2023-04-01T03:01:19;9.30;99.90
39347;DHT22;26262;49.836;6.632;2023-04-01T03:03:45;9.30;99.90
39347;DHT22;26262;49.836;6.632;2023-04-01T03:06:12;9.30;99.90
39347;DHT22;26262;49.836;6.632;2023-04-01T03:08:38;9.30;99.90
39347;DHT22;26262;49.836;6.632;2023-04-01T03:11:04;9.30;99.90
39347;DHT22;26262;49.836;6.632;2023-04-01T03:13:30;9.30;99.90
39347;DHT22;26262;49.836;6.632;2023-04-01T03:15:56;9.20;99.90
39347;DHT22;26262;49.836;6.632;2023-04-01T03:18:21;9.20;99.90
39347;DHT22;26262;49.836;6.632;2023-04-01T03:20:47;9.20;99.90
39347;DHT22;26262;49.836;6.632;2023-04-01T03:23:13;9.20;99.90
39347;DHT22;26262;49.836;6.632;2023-04-01T03:25:38;9.30;99.90
39347;DHT22;26262;49.836;6.632;2023-04-01T03:28:04;9.30;99.90
39347;DHT22;26262;49.836;6.632;2023-04-01T03:30:30;9.20;99.90
39347;DHT22;26262;49.836;6.632;2023-04-01T03:32:57;9.20;99.90
39347;DHT22;26262;49.836;6.632;2023-04-01T03:35:23;9.20;99.90
39347;DHT22;26262;49.836;6.632;2023-04-01T03:37:50;9.10;99.90
39347;DHT22;26262;49.836;6.632;2023-04-01T03:40:15;9.10;99.90
39347;DHT22;26262;49.836;6.632;2023-04-01T03:42:41;9.10;99.90
39347;DHT22;26262;49.836;6.632;2023-04-01T03:45:07;9.10;99.90
39347;DHT22;26262;49.836;6.632;2023-04-01T03:47:32;9.10;99.90
39347;DHT22;26262;49.836;6.632;2023-04-01T03:49:58;9.10;99.90
39347;DHT22;26262;49.836;6.632;2023-04-01T03:52:24;9.10;99.90
39347;DHT22;26262;49.836;6.632;2023-04-01T03:54:49;9.20;99.90
39347;DHT22;26262;49.836;6.632;2023-04-01T03:57:15;9.10;99.90
39347;DHT22;26262;49.836;6.632;2023-04-01T03:59:40;9.00;99.90
39347;DHT22;26262;49.836;6.632;2023-04-01T04:02:06;9.10;99.90
39347;DHT22;26262;49.836;6.632;2023-04-01T04:04:31;9.10;99.90
39347;DHT22;26262;49.836;6.632;2023-04-01T04:06:57;9.10;99.90
39347;DHT22;26262;49.836;6.632;2023-04-01T04:09:23;9.10;99.90
39347;DHT22;26262;49.836;6.632;2023-04-01T04:11:49;9.10;99.90
39347;DHT22;26262;49.836;6.632;2023-04-01T04:14:15;8.90;99.90
39347;DHT22;26262;49.836;6.632;2023-04-01T04:16:40;9.00;99.90
39347;DHT22;26262;49.836;6.632;2023-04-01T04:19:06;8.90;99.90
39347;DHT22;26262;49.836;6.632;2023-04-01T04:21:31;9.00;99.90
39347;DHT22;26262;49.836;6.632;2023-04-01T04:23:59;8.90;99.90
39347;DHT22;26262;49.836;6.632;2023-04-01T04:26:25;8.90;99.90
39347;DHT22;26262;49.836;6.632;2023-04-01T04:28:51;8.90;99.90
39347;DHT22;26262;49.836;6.632;2023-04-01T04:31:21;8.90;99.90
39347;DHT22;26262;49.836;6.632;2023-04-01T04:33:47;8.90;99.90
39347;DHT22;26262;49.836;6.632;2023-04-01T04:36:13;8.90;99.90
39347;DHT22;26262;49.836;6.632;2023-04-01T04:38:38;8.80;99.90
39347;DHT22;26262;49.836;6.632;2023-04-01T04:41:11;8.80;99.90
39347;DHT22;26262;49.836;6.632;2023-04-01T04:43:39;8.80;99.90
39347;DHT22;26262;49.836;6.632;2023-04-01T04:46:10;8.90;99.90
39347;DHT22;26262;49.836;6.632;2023-04-01T04:48:36;8.90;99.90
39347;DHT22;26262;49.836;6.632;2023-04-01T04:51:02;8.90;99.90
39347;DHT22;26262;49.836;6.632;2023-04-01T04:53:28;8.90;99.90
39347;DHT22;26262;49.836;6.632;2023-04-01T04:55:53;8.80;99.90
39347;DHT22;26262;49.836;6.632;2023-04-01T04:58:19;8.80;99.90
39347;DHT22;26262;49.836;6.632;2023-04-01T05:00:46;8.80;99.90
39347;DHT22;26262;49.836;6.632;2023-04-01T05:03:12;8.80;99.90
39347;DHT22;26262;49.836;6.632;2023-04-01T05:05:38;8.80;99.90
39347;DHT22;26262;49.836;6.632;2023-04-01T05:08:04;8.80;99.90
39347;DHT22;26262;49.836;6.632;2023-04-01T05:10:29;8.90;99.90
39347;DHT22;26262;49.836;6.632;2023-04-01T05:12:57;8.90;99.90
39347;DHT22;26262;49.836;6.632;2023-04-01T05:15:22;8.90;99.90
39347;DHT22;26262;49.836;6.632;2023-04-01T05:17:48;8.90;99.90
39347;DHT22;26262;49.836;6.632;2023-04-01T05:20:14;8.80;99.90
39347;DHT22;26262;49.836;6.632;2023-04-01T05:22:40;8.80;99.90
39347;DHT22;26262;49.836;6.632;2023-04-01T05:25:06;8.80;99.90
39347;DHT22;26262;49.836;6.632;2023-04-01T05:27:32;8.90;99.90
39347;DHT22;26262;49.836;6.632;2023-04-01T05:29:58;8.80;99.90
39347;DHT22;26262;49.836;6.632;2023-04-01T05:32:23;8.80;99.90
39347;DHT22;26262;49.836;6.632;2023-04-01T05:34:53;8.90;99.90
39347;DHT22;26262;49.836;6.632;2023-04-01T05:37:19;8.80;99.90
39347;DHT22;26262;49.836;6.632;2023-04-01T05:39:45;8.80;99.90
39347;DHT22;26262;49.836;6.632;2023-04-01T05:42:10;8.90;99.90
39347;DHT22;26262;49.836;6.632;2023-04-01T05:44:36;8.90;99.90
39347;DHT22;26262;49.836;6.632;2023-04-01T05:47:03;8.90;99.90
39347;DHT22;26262;49.836;6.632;2023-04-01T05:49:29;8.90;99.90
39347;DHT22;26262;49.836;6.632;2023-04-01T05:51:55;9.00;99.90
39347;DHT22;26262;49.836;6.632;2023-04-01T05:54:21;9.00;99.90
39347;DHT22;26262;49.836;6.632;2023-04-01T05:56:47;9.00;99.90
39347;DHT22;26262;49.836;6.632;2023-04-01T05:59:12;9.10;99.90
39347;DHT22;26262;49.836;6.632;2023-04-01T06:01:39;9.10;99.90
39347;DHT22;26262;49.836;6.632;2023-04-01T06:04:04;9.10;99.90
39347;DHT22;26262;49.836;6.632;2023-04-01T06:06:31;9.10;99.90
39347;DHT22;26262;49.836;6.632;2023-04-01T06:09:01;9.10;99.90
39347;DHT22;26262;49.836;6.632;2023-04-01T06:11:37;9.10;99.90
39347;DHT22;26262;49.836;6.632;2023-04-01T06:14:29;9.20;99.90
39347;DHT22;26262;49.836;6.632;2023-04-01T06:22:59;9.10;99.90
39347;DHT22;26262;49.836;6.632;2023-04-01T06:29:01;9.20;99.90
39347;DHT22;26262;49.836;6.632;2023-04-01T06:31:36;9.20;99.90
39347;DHT22;26262;49.836;6.632;2023-04-01T06:34:18;9.20;99.90
39347;DHT22;26262;49.836;6.632;2023-04-01T06:37:19;9.20;99.90
39347;DHT22;26262;49.836;6.632;2023-04-01T06:48:38;9.20;99.90
39347;DHT22;26262;49.836;6.632;2023-04-01T06:53:52;9.30;99.90
39347;DHT22;26262;49.836;6.632;2023-04-01T06:56:22;9.30;99.90
39347;DHT22;26262;49.836;6.632;2023-04-01T06:58:52;9.30;99.90
39347;DHT22;26262;49.836;6.632;2023-04-01T07:01:38;9.40;99.90
39347;DHT22;26262;49.836;6.632;2023-04-01T07:04:14;9.50;99.90
39347;DHT22;26262;49.836;6.632;2023-04-01T07:06:48;9.40;99.90
39347;DHT22;26262;49.836;6.632;2023-04-01T07:09:35;9.50;99.90
39347;DHT22;26262;49.836;6.632;2023-04-01T07:12:10;9.50;99.90
39347;DHT22;26262;49.836;6.632;2023-04-01T07:14:37;9.50;99.90
39347;DHT22;26262;49.836;6.632;2023-04-01T07:17:12;9.50;99.90
39347;DHT22;26262;49.836;6.632;2023-04-01T07:19:47;9.50;99.90
39347;DHT22;26262;49.836;6.632;2023-04-01T07:25:24;9.60;99.90
39347;DHT22;26262;49.836;6.632;2023-04-01T07:27:53;9.70;99.90
39347;DHT22;26262;49.836;6.632;2023-04-01T07:30:22;9.70;99.90
39347;DHT22;26262;49.836;6.632;2023-04-01T07:33:06;9.70;99.90
39347;DHT22;26262;49.836;6.632;2023-04-01T07:35:54;9.70;99.90
39347;DHT22;26262;49.836;6.632;2023-04-01T07:41:51;9.70;99.90
39347;DHT22;26262;49.836;6.632;2023-04-01T07:52:26;9.70;99.90
39347;DHT22;26262;49.836;6.632;2023-04-01T08:00:32;9.80;99.90
39347;DHT22;26262;49.836;6.632;2023-04-01T08:03:24;9.90;99.90
39347;DHT22;26262;49.836;6.632;2023-04-01T08:06:01;10.00;99.90
39347;DHT22;26262;49.836;6.632;2023-04-01T08:14:10;10.00;99.90
39347;DHT22;26262;49.836;6.632;2023-04-01T08:16:42;10.10;99.90
39347;DHT22;26262;49.836;6.632;2023-04-01T08:22:01;10.30;99.90
39347;DHT22;26262;49.836;6.632;2023-04-01T08:24:36;10.30;99.90
39347;DHT22;26262;49.836;6.632;2023-04-01T08:27:11;10.50;99.90
39347;DHT22;26262;49.836;6.632;2023-04-01T08:29:59;10.50;99.90
39347;DHT22;26262;49.836;6.632;2023-04-01T08:32:35;10.70;99.90
39347;DHT22;26262;49.836;6.632;2023-04-01T08:35:29;10.60;99.90
39347;DHT22;26262;49.836;6.632;2023-04-01T08:38:01;10.70;99.90
39347;DHT22;26262;49.836;6.632;2023-04-01T08:40:52;10.70;99.90
39347;DHT22;26262;49.836;6.632;2023-04-01T08:50:24;10.60;99.90
39347;DHT22;26262;49.836;6.632;2023-04-01T08:55:21;10.40;99.90
39347;DHT22;26262;49.836;6.632;2023-04-01T09:00:33;10.40;99.90
39347;DHT22;26262;49.836;6.632;2023-04-01T09:06:20;10.50;99.90
39347;DHT22;26262;49.836;6.632;2023-04-01T09:23:20;10.50;99.90
39347;DHT22;26262;49.836;6.632;2023-04-01T09:46:14;10.70;99.90
39347;DHT22;26262;49.836;6.632;2023-04-01T09:54:47;10.70;99.90
39347;DHT22;26262;49.836;6.632;2023-04-01T10:00:45;10.80;99.90
39347;DHT22;26262;49.836;6.632;2023-04-01T10:09:22;10.90;99.90
39347;DHT22;26262;49.836;6.632;2023-04-01T10:29:37;10.90;99.90
39347;DHT22;26262;49.836;6.632;2023-04-01T10:35:38;10.90;99.90
39347;DHT22;26262;49.836;6.632;2023-04-01T10:38:19;10.80;99.90
39347;DHT22;26262;49.836;6.632;2023-04-01T10:41:10;10.90;99.90
39347;DHT22;26262;49.836;6.632;2023-04-01T11:04:51;11.20;99.90
39347;DHT22;26262;49.836;6.632;2023-04-01T11:19:20;11.20;99.90
39347;DHT22;26262;49.836;6.632;2023-04-01T11:25:07;11.00;99.90
39347;DHT22;26262;49.836;6.632;2023-04-01T11:27:46;10.90;99.90
39347;DHT22;26262;49.836;6.632;2023-04-01T11:30:36;10.90;99.90
39347;DHT22;26262;49.836;6.632;2023-04-01T11:44:26;11.00;99.90
39347;DHT22;26262;49.836;6.632;2023-04-01T11:47:40;11.00;99.90
39347;DHT22;26262;49.836;6.632;2023-04-01T12:01:30;10.80;99.90
39347;DHT22;26262;49.836;6.632;2023-04-01T12:04:21;10.80;99.90
39347;DHT22;26262;49.836;6.632;2023-04-01T12:10:28;10.70;99.90
39347;DHT22;26262;49.836;6.632;2023-04-01T12:15:36;10.70;99.90
39347;DHT22;26262;49.836;6.632;2023-04-01T12:18:20;10.70;99.90
39347;DHT22;26262;49.836;6.632;2023-04-01T12:23:36;10.70;99.90
39347;DHT22;26262;49.836;6.632;2023-04-01T12:34:41;11.00;99.90
39347;DHT22;26262;49.836;6.632;2023-04-01T12:37:17;11.10;99.90
39347;DHT22;26262;49.836;6.632;2023-04-01T12:49:00;11.60;99.90
39347;DHT22;26262;49.836;6.632;2023-04-01T12:51:46;11.50;99.90
39347;DHT22;26262;49.836;6.632;2023-04-01T12:54:48;11.50;99.90
39347;DHT22;26262;49.836;6.632;2023-04-01T13:09:02;11.60;99.90
39347;DHT22;26262;49.836;6.632;2023-04-01T13:12:01;11.70;99.90
39347;DHT22;26262;49.836;6.632;2023-04-01T13:23:03;11.80;99.90
39347;DHT22;26262;49.836;6.632;2023-04-01T13:28:35;12.00;99.90
39347;DHT22;26262;49.836;6.632;2023-04-01T13:36:56;11.80;99.90
39347;DHT22;26262;49.836;6.632;2023-04-01T13:42:28;11.50;99.90
39347;DHT22;26262;49.836;6.632;2023-04-01T13:45:18;11.60;99.90
39347;DHT22;26262;49.836;6.632;2023-04-01T13:48:11;11.40;99.90
39347;DHT22;26262;49.836;6.632;2023-04-01T13:56:41;11.40;99.90
39347;DHT22;26262;49.836;6.632;2023-04-01T14:05:48;11.50;99.90
39347;DHT22;26262;49.836;6.632;2023-04-01T14:08:33;11.50;99.90
39347;DHT22;26262;49.836;6.632;2023-04-01T14:14:29;11.60;99.90
39347;DHT22;26262;49.836;6.632;2023-04-01T14:23:11;11.80;99.90
39347;DHT22;26262;49.836;6.632;2023-04-01T14:31:24;11.60;99.90
39347;DHT22;26262;49.836;6.632;2023-04-01T14:49:50;11.40;99.90
39347;DHT22;26262;49.836;6.632;2023-04-01T14:52:32;11.30;99.90
39347;DHT22;26262;49.836;6.632;2023-04-01T14:55:00;11.40;99.90
39347;DHT22;26262;49.836;6.632;2023-04-01T14:57:31;11.30;99.90
39347;DHT22;26262;49.836;6.632;2023-04-01T15:03:07;11.40;99.90
39347;DHT22;26262;49.836;6.632;2023-04-01T15:08:44;11.40;99.90
39347;DHT22;26262;49.836;6.632;2023-04-01T15:11:42;11.50;99.90
39347;DHT22;26262;49.836;6.632;2023-04-01T15:23:10;11.10;99.90
39347;DHT22;26262;49.836;6.632;2023-04-01T15:35:12;11.00;99.90
39347;DHT22;26262;49.836;6.632;2023-04-01T15:42:25;10.90;99.90
39347;DHT22;26262;49.836;6.632;2023-04-01T16:07:24;10.70;99.90
39347;DHT22;26262;49.836;6.632;2023-04-01T16:10:17;10.70;99.90
39347;DHT22;26262;49.836;6.632;2023-04-01T16:15:52;10.60;99.90
39347;DHT22;26262;49.836;6.632;2023-04-01T16:26:58;10.50;99.90
39347;DHT22;26262;49.836;6.632;2023-04-01T16:29:38;10.50;99.90
39347;DHT22;26262;49.836;6.632;2023-04-01T16:32:37;10.60;99.90
39347;DHT22;26262;49.836;6.632;2023-04-01T16:35:35;10.50;99.90
39347;DHT22;26262;49.836;6.632;2023-04-01T16:38:19;10.50;99.90
39347;DHT22;26262;49.836;6.632;2023-04-01T16:43:53;10.60;99.90
39347;DHT22;26262;49.836;6.632;2023-04-01T16:46:43;10.50;99.90
39347;DHT22;26262;49.836;6.632;2023-04-01T16:59:36;10.30;99.90
39347;DHT22;26262;49.836;6.632;2023-04-01T17:16:14;10.10;99.90
39347;DHT22;26262;49.836;6.632;2023-04-01T17:27:58;10.00;99.90
39347;DHT22;26262;49.836;6.632;2023-04-01T17:30:41;10.00;99.90
39347;DHT22;26262;49.836;6.632;2023-04-01T17:36:16;9.80;99.90
39347;DHT22;26262;49.836;6.632;2023-04-01T17:44:54;9.80;99.90
39347;DHT22;26262;49.836;6.632;2023-04-01T17:52:44;9.90;99.90
39347;DHT22;26262;49.836;6.632;2023-04-01T17:55:50;9.90;99.90
39347;DHT22;26262;49.836;6.632;2023-04-01T18:09:42;9.70;99.90
39347;DHT22;26262;49.836;6.632;2023-04-01T18:12:18;9.70;99.90
39347;DHT22;26262;49.836;6.632;2023-04-01T18:15:12;9.80;99.90
39347;DHT22;26262;49.836;6.632;2023-04-01T18:23:55;9.90;99.90
39347;DHT22;26262;49.836;6.632;2023-04-01T18:29:18;10.00;99.90
39347;DHT22;26262;49.836;6.632;2023-04-01T18:32:00;10.00;99.90
39347;DHT22;26262;49.836;6.632;2023-04-01T18:38:18;10.10;99.90
39347;DHT22;26262;49.836;6.632;2023-04-01T18:41:10;10.00;99.90
39347;DHT22;26262;49.836;6.632;2023-04-01T18:43:51;9.90;99.90
39347;DHT22;26262;49.836;6.632;2023-04-01T18:46:49;10.00;99.90
39347;DHT22;26262;49.836;6.632;2023-04-01T18:49:26;10.00;99.90
39347;DHT22;26262;49.836;6.632;2023-04-01T18:51:59;10.00;99.90
39347;DHT22;26262;49.836;6.632;2023-04-01T18:54:32;10.00;99.90
39347;DHT22;26262;49.836;6.632;2023-04-01T19:00:04;10.10;99.90
39347;DHT22;26262;49.836;6.632;2023-04-01T19:02:56;10.00;99.90
39347;DHT22;26262;49.836;6.632;2023-04-01T19:05:30;10.00;99.90
39347;DHT22;26262;49.836;6.632;2023-04-01T19:08:20;10.10;99.90
39347;DHT22;26262;49.836;6.632;2023-04-01T19:14:01;10.10;99.90
39347;DHT22;26262;49.836;6.632;2023-04-01T19:27:38;9.40;99.90
39347;DHT22;26262;49.836;6.632;2023-04-01T19:33:32;9.40;99.90
39347;DHT22;26262;49.836;6.632;2023-04-01T19:36:23;9.40;99.90
39347;DHT22;26262;49.836;6.632;2023-04-01T19:42:05;9.30;99.90
39347;DHT22;26262;49.836;6.632;2023-04-01T19:45:01;9.30;99.90
39347;DHT22;26262;49.836;6.632;2023-04-01T19:52:48;9.40;99.90
39347;DHT22;26262;49.836;6.632;2023-04-01T20:00:27;9.50;99.90
39347;DHT22;26262;49.836;6.632;2023-04-01T20:05:50;9.40;99.90
39347;DHT22;26262;49.836;6.632;2023-04-01T20:14:33;9.30;99.90
39347;DHT22;26262;49.836;6.632;2023-04-01T20:19:55;9.20;99.90
39347;DHT22;26262;49.836;6.632;2023-04-01T20:22:24;9.20;99.90
39347;DHT22;26262;49.836;6.632;2023-04-01T20:24:58;9.20;99.90
39347;DHT22;26262;49.836;6.632;2023-04-01T20:27:33;9.20;99.90
39347;DHT22;26262;49.836;6.632;2023-04-01T20:30:19;9.30;99.90
39347;DHT22;26262;49.836;6.632;2023-04-01T20:44:10;9.30;99.90
39347;DHT22;26262;49.836;6.632;2023-04-01T20:52:41;9.00;99.90
39347;DHT22;26262;49.836;6.632;2023-04-01T21:04:12;8.60;99.90
39347;DHT22;26262;49.836;6.632;2023-04-01T21:12:18;8.90;99.90
39347;DHT22;26262;49.836;6.632;2023-04-01T21:15:07;9.00;99.90
39347;DHT22;26262;49.836;6.632;2023-04-01T21:35:14;9.00;99.90
39347;DHT22;26262;49.836;6.632;2023-04-01T21:46:54;9.20;99.90
39347;DHT22;26262;49.836;6.632;2023-04-01T21:49:19;9.20;99.90
39347;DHT22;26262;49.836;6.632;2023-04-01T21:57:54;8.90;99.90
39347;DHT22;26262;49.836;6.632;2023-04-01T22:06:01;9.00;99.90
39347;DHT22;26262;49.836;6.632;2023-04-01T22:14:08;8.70;99.90
39347;DHT22;26262;49.836;6.632;2023-04-01T22:17:03;8.60;99.90
39347;DHT22;26262;49.836;6.632;2023-04-01T22:25:56;8.80;99.90
39347;DHT22;26262;49.836;6.632;2023-04-01T22:28:27;8.80;99.90
39347;DHT22;26262;49.836;6.632;2023-04-01T22:31:01;8.80;99.90
39347;DHT22;26262;49.836;6.632;2023-04-01T22:42:44;8.70;99.90
39347;DHT22;26262;49.836;6.632;2023-04-01T22:47:51;8.70;99.90
39347;DHT22;26262;49.836;6.632;2023-04-01T22:55:46;8.80;99.90
39347;DHT22;26262;49.836;6.632;2023-04-01T22:58:17;8.90;99.90
39347;DHT22;26262;49.836;6.632;2023-04-01T23:00:50;8.80;99.90
39347;DHT22;26262;49.836;6.632;2023-04-01T23:03:30;8.90;99.90
39347;DHT22;26262;49.836;6.632;2023-04-01T23:05:58;8.80;99.90
39347;DHT22;26262;49.836;6.632;2023-04-01T23:11:18;8.90;99.90
39347;DHT22;26262;49.836;6.632;2023-04-01T23:13:49;8.80;99.90
39347;DHT22;26262;49.836;6.632;2023-04-01T23:16:41;8.80;99.90
39347;DHT22;26262;49.836;6.632;2023-04-01T23:19:15;8.80;99.90
39347;DHT22;26262;49.836;6.632;2023-04-01T23:22:06;8.80;99.90
39347;DHT22;26262;49.836;6.632;2023-04-01T23:24:41;8.80;99.90
39347;DHT22;26262;49.836;6.632;2023-04-01T23:27:26;8.80;99.90
39347;DHT22;26262;49.836;6.632;2023-04-01T23:29:54;8.80;99.90
39347;DHT22;26262;49.836;6.632;2023-04-01T23:32:23;8.90;99.90
39347;DHT22;26262;49.836;6.632;2023-04-01T23:34:52;8.90;99.90
39347;DHT22;26262;49.836;6.632;2023-04-01T23:37:20;9.00;99.90
39347;DHT22;26262;49.836;6.632;2023-04-01T23:39:50;8.90;99.90
39347;DHT22;26262;49.836;6.632;2023-04-01T23:42:29;9.00;99.90
39347;DHT22;26262;49.836;6.632;2023-04-01T23:44:58;9.10;99.90
39347;DHT22;26262;49.836;6.632;2023-04-01T23:47:31;9.10;99.90
39347;DHT22;26262;49.836;6.632;2023-04-01T23:52:59;9.00;99.90
39347;DHT22;26262;49.836;6.632;2023-04-01T23:55:31;8.90;99.90
39347;DHT22;26262;49.836;6.632;2023-04-01T23:58:23;8.70;99.90
